createdAt,value
2019-05-03T00:02:25.313Z,5.87
2019-05-03T00:05:16.991Z,5.30
2019-05-03T00:07:48.096Z,6.20
2019-05-03T00:10:17.597Z,6.15
2019-05-03T00:12:46.154Z,6.37
2019-05-03T00:15:21.657Z,5.90
2019-05-03T00:17:50.183Z,6.15
2019-05-03T00:20:21.913Z,6.28
2019-05-03T00:22:52.339Z,6.33
2019-05-03T00:25:22.111Z,5.95
2019-05-03T00:27:52.869Z,6.45
2019-05-03T00:30:23.794Z,6.45
2019-05-03T00:32:55.917Z,5.60
2019-05-03T00:35:34.483Z,6.33
2019-05-03T00:38:08.503Z,6.92
2019-05-03T00:40:37.067Z,7.03
2019-05-03T00:43:06.018Z,5.53
2019-05-03T00:45:34.930Z,6.30
2019-05-03T00:48:05.566Z,5.87
2019-05-03T00:50:39.005Z,6.62
2019-05-03T00:53:07.737Z,7.00
2019-05-03T00:55:36.639Z,6.12
2019-05-03T00:58:08.571Z,6.33
2019-05-03T01:00:39.284Z,7.37
2019-05-03T01:03:09.966Z,6.22
2019-05-03T01:05:42.350Z,5.95
2019-05-03T01:08:12.648Z,6.08
2019-05-03T01:10:43.183Z,7.72
2019-05-03T01:13:12.421Z,6.75
2019-05-03T01:15:52.000Z,9.00
2019-05-03T01:18:21.861Z,7.05
2019-05-03T01:20:51.852Z,6.67
2019-05-03T01:23:23.313Z,7.62
2019-05-03T01:25:51.893Z,6.85
2019-05-03T01:28:21.573Z,6.35
2019-05-03T01:30:51.910Z,7.47
2019-05-03T01:33:22.630Z,7.25
2019-05-03T01:35:52.018Z,6.87
2019-05-03T01:38:22.677Z,8.18
2019-05-03T01:40:52.175Z,7.53
2019-05-03T01:43:22.185Z,7.70
2019-05-03T01:45:51.887Z,7.87
2019-05-03T01:48:27.626Z,6.83
2019-05-03T01:51:06.791Z,7.30
2019-05-03T01:53:36.375Z,6.05
2019-05-03T01:56:05.332Z,6.28
2019-05-03T01:58:33.894Z,5.87
2019-05-03T02:01:12.658Z,4.70
2019-05-03T02:03:55.157Z,4.37
2019-05-03T02:06:25.103Z,4.40
2019-05-03T02:08:53.853Z,4.33
2019-05-03T02:11:22.839Z,3.80
2019-05-03T02:13:52.223Z,4.00
2019-05-03T02:16:21.861Z,4.20
2019-05-03T02:18:51.828Z,3.45
2019-05-03T02:21:21.622Z,3.65
2019-05-03T02:23:52.189Z,3.62
2019-05-03T02:26:22.449Z,4.05
2019-05-03T02:28:52.722Z,3.22
2019-05-03T02:31:23.260Z,3.52
2019-05-03T02:33:53.501Z,3.67
2019-05-03T02:36:23.187Z,4.08
2019-05-03T02:38:53.551Z,4.00
2019-05-03T02:41:23.938Z,3.75
2019-05-03T02:43:55.990Z,3.90
2019-05-03T02:46:30.603Z,3.65
2019-05-03T02:49:08.291Z,3.83
2019-05-03T02:51:36.859Z,4.33
2019-05-03T02:54:05.716Z,4.03
2019-05-03T02:56:35.800Z,3.85
2019-05-03T02:59:06.201Z,4.67
2019-05-03T03:01:35.793Z,4.92
2019-05-03T03:04:05.394Z,4.40
2019-05-03T03:06:36.645Z,4.22
2019-05-03T03:09:06.366Z,3.80
2019-05-03T03:11:38.437Z,4.80
2019-05-03T03:14:11.386Z,3.80
2019-05-03T03:16:40.750Z,4.20
2019-05-03T03:19:09.315Z,4.25
2019-05-03T03:21:41.002Z,4.53
2019-05-03T03:24:16.363Z,4.83
2019-05-03T03:26:47.108Z,4.30
2019-05-03T03:29:17.232Z,4.65
2019-05-03T03:31:58.736Z,4.53
2019-05-03T03:34:31.773Z,4.22
2019-05-03T03:37:06.597Z,4.35
2019-05-03T03:39:36.450Z,5.00
2019-05-03T03:42:05.516Z,3.90
2019-05-03T03:44:36.367Z,3.67
2019-05-03T03:47:05.303Z,3.80
2019-05-03T03:49:35.632Z,4.28
2019-05-03T03:52:07.548Z,4.12
2019-05-03T03:54:36.354Z,3.47
2019-05-03T03:57:08.230Z,3.95
2019-05-03T03:59:36.322Z,3.67
2019-05-03T04:02:06.064Z,3.52
2019-05-03T04:04:35.752Z,3.22
2019-05-03T04:07:07.810Z,3.33
2019-05-03T04:09:38.408Z,3.62
2019-05-03T04:12:09.220Z,4.00
2019-05-03T04:14:45.569Z,4.15
2019-05-03T04:17:36.159Z,4.40
2019-05-03T04:20:06.163Z,3.90
2019-05-03T04:22:36.318Z,3.55
2019-05-03T04:25:05.946Z,3.83
2019-05-03T04:27:36.623Z,4.30
2019-05-03T04:30:07.538Z,3.58
2019-05-03T04:32:36.285Z,3.83
2019-05-03T04:35:05.488Z,3.10
2019-05-03T04:37:35.969Z,3.77
2019-05-03T04:40:06.220Z,3.98
2019-05-03T04:42:35.853Z,3.33
2019-05-03T04:45:06.496Z,3.00
2019-05-03T04:47:35.935Z,3.02
2019-05-03T04:50:06.732Z,3.72
2019-05-03T04:52:36.145Z,4.03
2019-05-03T04:55:06.562Z,2.98
2019-05-03T04:57:45.033Z,3.98
2019-05-03T05:00:11.783Z,3.87
2019-05-03T05:02:40.433Z,4.28
2019-05-03T05:05:09.000Z,3.55
2019-05-03T05:07:39.952Z,3.72
2019-05-03T05:10:11.550Z,3.00
2019-05-03T05:12:40.085Z,2.98
2019-05-03T05:15:08.641Z,3.33
2019-05-03T05:17:56.279Z,3.30
2019-05-03T05:20:37.006Z,2.83
2019-05-03T05:23:05.700Z,3.22
2019-05-03T05:25:38.585Z,2.98
2019-05-03T05:28:44.607Z,3.37
2019-05-03T05:31:10.734Z,3.20
2019-05-03T05:33:40.987Z,3.42
2019-05-03T05:36:10.195Z,3.02
2019-05-03T05:38:42.182Z,2.83
2019-05-03T05:41:10.743Z,3.15
2019-05-03T05:43:39.901Z,2.10
2019-05-03T05:46:10.031Z,3.10
2019-05-03T05:48:45.668Z,3.80
2019-05-03T05:51:16.130Z,3.02
2019-05-03T05:53:44.924Z,3.35
2019-05-03T05:56:35.352Z,2.42
2019-05-03T05:59:21.899Z,3.60
2019-05-03T06:02:00.512Z,2.58
2019-05-03T06:04:29.540Z,2.77
2019-05-03T06:07:35.143Z,2.58
2019-05-03T06:10:25.011Z,2.75
2019-05-03T06:13:10.121Z,2.77
2019-05-03T06:15:50.613Z,2.87
2019-05-03T06:18:26.419Z,2.45
2019-05-03T06:21:09.516Z,2.80
2019-05-03T06:23:45.120Z,2.23
2019-05-03T06:26:37.199Z,2.83
2019-05-03T06:29:05.810Z,2.62
2019-05-03T06:31:50.037Z,2.25
2019-05-03T06:34:20.272Z,2.62
2019-05-03T06:36:52.581Z,2.17
2019-05-03T06:39:24.785Z,2.95
2019-05-03T06:41:54.978Z,2.75
2019-05-03T06:44:24.783Z,2.55
2019-05-03T06:47:01.043Z,2.30
2019-05-03T06:51:57.519Z,2.55
2019-05-03T06:54:29.876Z,2.10
2019-05-03T06:57:00.151Z,2.00
2019-05-03T06:59:32.451Z,2.17
2019-05-03T07:02:18.681Z,2.33
2019-05-03T07:04:49.411Z,2.52
2019-05-03T07:07:29.219Z,2.30
2019-05-03T07:10:11.812Z,2.30
2019-05-03T07:12:58.873Z,2.12
2019-05-03T07:15:27.728Z,2.27
2019-05-03T07:17:58.335Z,2.02
2019-05-03T07:20:26.926Z,2.55
2019-05-03T07:22:58.647Z,2.10
2019-05-03T07:25:27.234Z,2.05
2019-05-03T07:27:57.990Z,2.22
2019-05-03T07:30:29.676Z,2.60
2019-05-03T07:33:04.842Z,2.15
2019-05-03T07:35:35.244Z,2.62
2019-05-03T07:38:08.821Z,2.50
2019-05-03T07:40:38.964Z,3.05
2019-05-03T07:43:11.089Z,2.52
2019-05-03T07:45:39.689Z,2.40
2019-05-03T07:48:08.549Z,2.60
2019-05-03T07:50:37.469Z,2.85
2019-05-03T07:53:09.622Z,2.42
2019-05-03T07:55:55.188Z,2.25
2019-05-03T07:58:25.282Z,2.02
2019-05-03T08:01:06.167Z,2.52
2019-05-03T08:03:27.433Z,2.72
2019-05-03T08:05:57.292Z,2.33
2019-05-03T08:08:28.533Z,2.35
2019-05-03T08:10:57.098Z,2.25
2019-05-03T08:13:26.069Z,2.17
2019-05-03T08:15:56.046Z,2.50
2019-05-03T08:18:28.019Z,2.37
2019-05-03T08:20:56.830Z,2.67
2019-05-03T08:23:30.376Z,3.10
2019-05-03T08:25:58.870Z,2.95
2019-05-03T08:28:27.439Z,2.80
2019-05-03T08:31:06.974Z,2.27
2019-05-03T08:33:48.234Z,2.47
2019-05-03T08:36:16.814Z,2.67
2019-05-03T08:38:47.103Z,4.30
2019-05-03T08:41:20.137Z,3.60
2019-05-03T08:43:48.681Z,2.10
2019-05-03T08:46:17.257Z,2.30
2019-05-03T08:48:46.023Z,2.02
2019-05-03T08:51:15.007Z,3.37
2019-05-03T08:53:45.845Z,2.75
2019-05-03T08:56:15.833Z,2.47
2019-05-03T08:58:46.123Z,2.60
2019-05-03T09:01:18.184Z,2.15
2019-05-03T09:03:48.376Z,2.12
2019-05-03T09:06:17.250Z,2.00
2019-05-03T09:08:46.004Z,2.08
2019-05-03T09:11:16.630Z,1.98
2019-05-03T09:13:49.549Z,2.20
2019-05-03T09:16:21.369Z,2.30
2019-05-03T09:18:49.991Z,1.77
2019-05-03T09:21:18.870Z,2.17
2019-05-03T09:23:51.423Z,2.10
2019-05-03T09:26:20.313Z,1.80
2019-05-03T09:28:48.837Z,2.02
2019-05-03T09:31:17.790Z,1.87
2019-05-03T09:33:50.836Z,2.05
2019-05-03T09:36:19.411Z,1.82
2019-05-03T09:38:49.535Z,1.67
2019-05-03T09:41:18.086Z,1.70
2019-05-03T09:43:48.504Z,1.90
2019-05-03T09:46:18.653Z,1.60
2019-05-03T09:48:47.769Z,2.08
2019-05-03T09:51:17.039Z,2.05
2019-05-03T09:53:52.071Z,1.67
2019-05-03T09:56:52.844Z,1.92
2019-05-03T09:59:11.990Z,2.90
2019-05-03T10:01:41.916Z,2.65
2019-05-03T10:04:17.904Z,2.05
2019-05-03T10:06:45.406Z,2.30
2019-05-03T10:09:15.416Z,2.42
2019-05-03T10:11:46.437Z,2.22
2019-05-03T10:14:15.916Z,2.02
2019-05-03T10:16:57.026Z,1.90
2019-05-03T10:19:37.112Z,2.12
2019-05-03T10:21:56.655Z,2.08
2019-05-03T10:24:25.567Z,2.52
2019-05-03T10:26:55.243Z,2.45
2019-05-03T10:29:25.081Z,4.22
2019-05-03T10:32:01.169Z,2.92
2019-05-03T10:34:29.694Z,2.70
2019-05-03T10:36:58.794Z,2.15
2019-05-03T10:39:27.334Z,2.37
2019-05-03T10:41:57.432Z,1.65
2019-05-03T10:44:25.983Z,2.30
2019-05-03T10:46:56.758Z,2.45
2019-05-03T10:49:28.687Z,1.72
2019-05-03T10:52:01.731Z,1.90
2019-05-03T10:54:30.273Z,1.92
2019-05-03T10:57:15.901Z,2.42
2019-05-03T10:59:46.684Z,2.15
2019-05-03T11:02:40.178Z,2.58
2019-05-03T11:05:09.105Z,2.37
2019-05-03T11:07:37.658Z,2.20
2019-05-03T11:10:06.331Z,2.40
2019-05-03T11:12:36.638Z,2.15
2019-05-03T11:15:07.098Z,2.20
2019-05-03T11:17:35.972Z,2.37
2019-05-03T11:20:06.295Z,2.70
2019-05-03T11:22:36.315Z,2.20
2019-05-03T11:25:05.426Z,2.33
2019-05-03T11:27:40.420Z,2.22
2019-05-03T11:30:10.793Z,2.85
2019-05-03T11:32:51.208Z,2.15
2019-05-03T11:35:27.158Z,2.98
2019-05-03T11:38:08.453Z,2.27
2019-05-03T11:40:36.979Z,2.67
2019-05-03T11:43:06.152Z,1.95
2019-05-03T11:45:35.466Z,2.00
2019-05-03T11:48:05.639Z,2.40
2019-05-03T11:50:34.786Z,2.20
2019-05-03T11:53:05.178Z,2.30
2019-05-03T11:55:39.297Z,2.00
2019-05-03T11:58:27.007Z,1.90
2019-05-03T12:01:16.004Z,1.72
2019-05-03T12:03:44.863Z,2.00
2019-05-03T12:06:15.651Z,2.27
2019-05-03T12:08:46.308Z,2.08
2019-05-03T12:11:15.267Z,1.67
2019-05-03T12:13:47.433Z,1.92
2019-05-03T12:16:32.155Z,1.67
2019-05-03T12:18:54.223Z,1.45
2019-05-03T12:21:26.503Z,1.85
2019-05-03T12:23:56.054Z,2.15
2019-05-03T12:26:25.913Z,2.45
2019-05-03T12:28:54.601Z,1.72
2019-05-03T12:31:36.149Z,2.00
2019-05-03T12:33:57.529Z,2.00
2019-05-03T12:36:27.455Z,1.85
2019-05-03T12:39:02.560Z,1.90
2019-05-03T12:41:31.290Z,1.85
2019-05-03T12:44:01.587Z,2.80
2019-05-03T12:46:32.078Z,2.27
2019-05-03T12:49:00.817Z,2.35
2019-05-03T12:51:30.240Z,1.87
2019-05-03T12:53:59.021Z,2.60
2019-05-03T12:56:32.743Z,1.85
2019-05-03T12:59:05.782Z,2.37
2019-05-03T13:01:52.549Z,1.82
2019-05-03T13:04:27.916Z,2.30
2019-05-03T13:07:05.498Z,1.90
2019-05-03T13:09:36.308Z,1.82
2019-05-03T13:12:05.643Z,2.22
2019-05-03T13:14:38.774Z,1.85
2019-05-03T13:17:07.706Z,1.85
2019-05-03T13:19:38.013Z,2.02
2019-05-03T13:22:09.556Z,1.60
2019-05-03T13:24:40.304Z,2.08
2019-05-03T13:27:10.323Z,2.27
2019-05-03T13:29:38.908Z,2.30
2019-05-03T13:32:09.492Z,2.08
2019-05-03T13:34:38.076Z,2.42
2019-05-03T13:37:06.802Z,2.60
2019-05-03T13:39:36.091Z,2.92
2019-05-03T13:42:06.313Z,1.95
2019-05-03T13:44:35.520Z,2.47
2019-05-03T13:47:04.695Z,2.12
2019-05-03T13:49:35.237Z,1.92
2019-05-03T13:52:05.259Z,2.12
2019-05-03T13:54:34.972Z,2.08
2019-05-03T13:57:05.009Z,1.57
2019-05-03T13:59:34.077Z,1.90
2019-05-03T14:02:15.140Z,2.00
2019-05-03T14:04:48.741Z,2.10
2019-05-03T14:07:06.646Z,2.15
2019-05-03T14:09:35.436Z,2.10
2019-05-03T14:12:07.626Z,2.02
2019-05-03T14:14:55.878Z,2.27
2019-05-03T14:17:26.687Z,2.30
2019-05-03T14:20:02.288Z,2.65
2019-05-03T14:22:32.975Z,2.40
2019-05-03T14:25:01.888Z,2.35
2019-05-03T14:27:34.838Z,2.02
2019-05-03T14:30:05.425Z,2.70
2019-05-03T14:32:36.042Z,1.82
2019-05-03T14:35:05.230Z,2.42
2019-05-03T14:37:35.019Z,1.95
2019-05-03T14:40:05.148Z,2.22
2019-05-03T14:42:34.065Z,1.80
2019-05-03T14:45:04.496Z,1.90
2019-05-03T14:47:34.490Z,2.45
2019-05-03T14:50:05.348Z,2.12
2019-05-03T14:52:34.793Z,2.20
2019-05-03T14:55:11.156Z,2.25
2019-05-03T14:57:48.631Z,2.00
2019-05-03T15:00:27.732Z,2.30
2019-05-03T15:03:07.634Z,2.35
2019-05-03T15:05:36.893Z,2.35
2019-05-03T15:08:07.419Z,2.08
2019-05-03T15:10:37.686Z,1.95
2019-05-03T15:13:07.877Z,2.00
2019-05-03T15:15:37.059Z,3.10
2019-05-03T15:18:08.655Z,2.08
2019-05-03T15:20:41.176Z,2.75
2019-05-03T15:23:09.739Z,2.20
2019-05-03T15:25:38.685Z,2.12
2019-05-03T15:28:07.456Z,2.75
2019-05-03T15:30:36.043Z,2.00
2019-05-03T15:33:05.174Z,3.02
2019-05-03T15:35:35.181Z,2.50
2019-05-03T15:38:05.399Z,2.60
2019-05-03T15:40:34.573Z,1.90
2019-05-03T15:43:14.765Z,2.30
2019-05-03T15:46:05.057Z,2.37
2019-05-03T15:48:48.766Z,1.82
2019-05-03T15:51:18.607Z,1.95
2019-05-03T15:53:49.938Z,2.25
2019-05-03T15:56:20.073Z,1.82
2019-05-03T15:58:48.648Z,2.12
2019-05-03T16:01:20.523Z,2.15
2019-05-03T16:03:49.259Z,1.85
2019-05-03T16:06:19.622Z,2.10
2019-05-03T16:08:48.932Z,1.80
2019-05-03T16:11:20.620Z,2.22
2019-05-03T16:13:49.258Z,2.27
2019-05-03T16:16:19.384Z,2.52
2019-05-03T16:18:50.207Z,2.10
2019-05-03T16:21:18.773Z,2.30
2019-05-03T16:23:49.351Z,1.82
2019-05-03T16:26:18.219Z,1.90
2019-05-03T16:28:55.304Z,2.92
2019-05-03T16:31:26.296Z,2.10
2019-05-03T16:33:56.159Z,2.10
2019-05-03T16:36:25.041Z,2.40
2019-05-03T16:38:55.378Z,2.20
2019-05-03T16:41:24.919Z,2.10
2019-05-03T16:43:55.163Z,2.40
2019-05-03T16:46:26.102Z,2.40
2019-05-03T16:48:55.130Z,4.47
2019-05-03T16:51:25.391Z,3.95
2019-05-03T16:53:55.097Z,3.37
2019-05-03T16:56:24.576Z,2.00
2019-05-03T16:58:55.021Z,2.50
2019-05-03T17:01:24.435Z,2.75
2019-05-03T17:03:58.305Z,2.50
2019-05-03T17:06:58.278Z,2.25
2019-05-03T17:09:53.553Z,5.67
2019-05-03T17:12:27.048Z,2.95
2019-05-03T17:14:56.975Z,8.10
2019-05-03T17:17:27.418Z,4.12
2019-05-03T17:19:56.264Z,3.33
2019-05-03T17:22:26.933Z,3.85
2019-05-03T17:24:55.503Z,3.25
2019-05-03T17:27:24.983Z,2.52
2019-05-03T17:29:55.271Z,2.83
2019-05-03T17:32:24.568Z,2.65
2019-05-03T17:34:54.856Z,4.25
2019-05-03T17:37:25.803Z,3.37
2019-05-03T17:40:29.105Z,4.35
2019-05-03T17:43:17.211Z,4.92
2019-05-03T17:45:48.819Z,2.83
2019-05-03T17:48:17.386Z,3.30
2019-05-03T17:50:45.944Z,6.10
2019-05-03T17:53:25.312Z,6.80
2019-05-03T17:56:24.383Z,12.13
2019-05-03T17:59:04.650Z,6.53
2019-05-03T18:01:55.365Z,6.00
2019-05-03T18:04:35.225Z,5.78
2019-05-03T18:07:35.342Z,6.50
2019-05-03T18:10:11.657Z,8.35
2019-05-03T18:12:40.594Z,5.45
2019-05-03T18:15:11.143Z,6.75
2019-05-03T18:17:41.396Z,5.40
2019-05-03T18:20:15.030Z,6.58
2019-05-03T18:25:15.778Z,5.22
2019-05-03T18:27:44.668Z,4.25
2019-05-03T18:30:18.930Z,3.02
2019-05-03T18:32:47.518Z,4.12
2019-05-03T18:35:16.491Z,5.25
2019-05-03T18:37:52.415Z,5.42
2019-05-03T18:40:21.212Z,3.72
2019-05-03T18:42:55.156Z,4.65
2019-05-03T18:45:34.805Z,4.75
2019-05-03T18:48:05.833Z,4.97
2019-05-03T18:50:35.072Z,4.47
2019-05-03T18:53:05.353Z,3.70
2019-05-03T18:55:34.394Z,3.50
2019-05-03T18:58:04.330Z,4.25
2019-05-03T19:00:35.084Z,4.40
2019-05-03T19:03:03.938Z,4.22
2019-05-03T19:05:34.944Z,4.92
2019-05-03T19:08:16.337Z,4.75
2019-05-03T19:10:57.796Z,4.33
2019-05-03T19:13:41.522Z,3.80
2019-05-03T19:16:42.714Z,3.72
2019-05-03T19:19:11.749Z,4.30
2019-05-03T19:21:40.644Z,4.28
2019-05-03T19:24:10.113Z,4.00
2019-05-03T19:26:38.643Z,3.52
2019-05-03T19:29:10.644Z,5.42
2019-05-03T19:31:44.911Z,11.43
2019-05-03T19:34:15.470Z,2.30
2019-05-03T19:36:45.573Z,2.90
2019-05-03T19:39:16.655Z,2.37
2019-05-03T19:41:45.928Z,2.25
2019-05-03T19:44:15.867Z,2.55
2019-05-03T19:46:44.623Z,2.47
2019-05-03T19:49:13.633Z,2.40
2019-05-03T19:51:42.210Z,2.52
2019-05-03T19:54:10.783Z,2.15
2019-05-03T19:56:40.997Z,2.15
2019-05-03T19:59:11.999Z,2.47
2019-05-03T20:02:04.463Z,2.60
2019-05-03T20:05:00.752Z,5.58
2019-05-03T20:07:41.778Z,3.83
2019-05-03T20:10:10.738Z,6.42
2019-05-03T20:12:39.704Z,4.37
2019-05-03T20:15:08.487Z,4.55
2019-05-03T20:17:39.205Z,3.37
2019-05-03T20:20:10.654Z,3.37
2019-05-03T20:22:39.558Z,3.10
2019-05-03T20:25:08.629Z,3.50
2019-05-03T20:27:40.606Z,3.17
2019-05-03T20:30:10.547Z,2.95
2019-05-03T20:32:40.873Z,2.80
2019-05-03T20:35:18.483Z,3.65
2019-05-03T20:37:44.712Z,3.02
2019-05-03T20:40:15.284Z,2.58
2019-05-03T20:42:59.398Z,2.75
2019-05-03T20:48:15.847Z,2.70
2019-05-03T20:50:44.775Z,3.00
2019-05-03T20:53:15.501Z,2.80
2019-05-03T20:55:48.014Z,4.20
2019-05-03T20:58:17.929Z,3.90
2019-05-03T21:00:46.667Z,3.20
2019-05-03T21:03:15.381Z,2.83
2019-05-03T21:05:44.458Z,3.25
2019-05-03T21:08:14.796Z,2.50
2019-05-03T21:10:44.615Z,3.08
2019-05-03T21:13:14.625Z,2.40
2019-05-03T21:15:57.613Z,2.70
2019-05-03T21:18:40.142Z,3.55
2019-05-03T21:21:28.228Z,4.10
2019-05-03T21:24:00.474Z,4.05
2019-05-03T21:26:30.695Z,5.05
2019-05-03T21:28:59.904Z,6.25
2019-05-03T21:31:28.997Z,4.47
2019-05-03T21:33:57.717Z,4.12
2019-05-03T21:36:26.330Z,3.75
2019-05-03T21:38:56.555Z,4.45
2019-05-03T21:41:29.627Z,3.35
2019-05-03T21:44:01.646Z,3.60
2019-05-03T21:46:38.369Z,3.52
2019-05-03T21:49:19.762Z,2.80
2019-05-03T21:51:48.815Z,3.00
2019-05-03T21:54:17.541Z,3.55
2019-05-03T21:56:46.741Z,3.20
2019-05-03T21:59:15.655Z,2.80
2019-05-03T22:01:46.719Z,3.15
2019-05-03T22:04:18.665Z,3.47
2019-05-03T22:06:47.241Z,2.87
2019-05-03T22:09:17.774Z,3.15
2019-05-03T22:11:46.335Z,2.92
2019-05-03T22:14:25.233Z,3.37
2019-05-03T22:17:14.784Z,3.00
2019-05-03T22:19:45.014Z,3.30
2019-05-03T22:22:45.251Z,3.12
2019-05-03T22:25:16.089Z,3.80
2019-05-03T22:27:45.545Z,3.47
2019-05-03T22:30:15.851Z,3.75
2019-05-03T22:32:45.678Z,3.65
2019-05-03T22:35:15.673Z,4.28
2019-05-03T22:37:44.694Z,3.90
2019-05-03T22:40:14.607Z,4.05
2019-05-03T22:42:44.849Z,3.80
2019-05-03T22:45:13.495Z,4.40
2019-05-03T22:47:44.474Z,4.17
2019-05-03T22:50:14.908Z,4.10
2019-05-03T22:52:45.480Z,4.50
2019-05-03T22:55:15.313Z,4.50
2019-05-03T22:57:44.396Z,4.37
2019-05-03T23:00:14.633Z,3.65
2019-05-03T23:02:45.558Z,3.58
2019-05-03T23:05:15.996Z,3.65
2019-05-03T23:07:46.937Z,3.75
2019-05-03T23:10:17.394Z,3.60
2019-05-03T23:12:45.540Z,3.90
2019-05-03T23:15:15.069Z,3.75
2019-05-03T23:17:45.119Z,3.52
2019-05-03T23:20:25.472Z,3.98
2019-05-03T23:22:54.850Z,3.58
2019-05-03T23:25:25.040Z,3.40
2019-05-03T23:27:55.137Z,4.28
2019-05-03T23:30:24.926Z,3.50
2019-05-03T23:32:55.901Z,3.55
2019-05-03T23:35:25.067Z,4.05
2019-05-03T23:37:54.402Z,3.75
2019-05-03T23:40:25.381Z,3.65
2019-05-03T23:42:54.590Z,3.70
2019-05-03T23:45:25.849Z,3.42
2019-05-03T23:47:55.084Z,4.00
2019-05-03T23:50:27.332Z,4.08
2019-05-03T23:52:56.251Z,4.28
2019-05-03T23:55:34.634Z,3.98
2019-05-03T23:58:05.089Z,4.25
